createdAt,value
2019-04-11T00:01:52.711Z,2.03
2019-04-11T00:04:20.616Z,2.17
2019-04-11T00:06:47.849Z,2.03
2019-04-11T00:09:16.692Z,2.40
2019-04-11T00:11:44.209Z,2.00
2019-04-11T00:14:13.848Z,2.03
2019-04-11T00:16:41.428Z,1.90
2019-04-11T00:19:07.786Z,2.13
2019-04-11T00:21:34.908Z,2.60
2019-04-11T00:24:01.275Z,2.83
2019-04-11T00:26:28.591Z,2.33
2019-04-11T00:28:54.823Z,2.03
2019-04-11T00:31:21.060Z,2.10
2019-04-11T00:33:47.242Z,2.13
2019-04-11T00:36:14.441Z,2.10
2019-04-11T00:38:42.327Z,2.57
2019-04-11T00:41:08.666Z,2.23
2019-04-11T00:43:39.265Z,2.30
2019-04-11T00:46:09.925Z,2.00
2019-04-11T00:48:38.896Z,2.73
2019-04-11T00:51:05.207Z,2.67
2019-04-11T00:53:31.366Z,2.10
2019-04-11T00:55:57.733Z,2.40
2019-04-11T00:58:24.037Z,1.90
2019-04-11T01:00:51.306Z,3.03
2019-04-11T01:03:18.005Z,1.80
2019-04-11T01:05:44.428Z,2.20
2019-04-11T01:08:13.746Z,2.50
2019-04-11T01:10:43.564Z,2.47
2019-04-11T01:13:11.174Z,2.40
2019-04-11T01:15:48.998Z,2.27
2019-04-11T01:18:16.009Z,2.37
2019-04-11T01:20:42.344Z,2.07
2019-04-11T01:23:08.945Z,2.10
2019-04-11T01:25:36.791Z,2.33
2019-04-11T01:28:03.206Z,2.10
2019-04-11T01:30:33.323Z,2.73
2019-04-11T01:32:59.595Z,2.70
2019-04-11T01:35:25.792Z,2.73
2019-04-11T01:37:52.303Z,2.00
2019-04-11T01:40:18.615Z,2.57
2019-04-11T01:42:44.842Z,2.90
2019-04-11T01:45:11.734Z,2.13
2019-04-11T01:47:57.574Z,2.77
2019-04-11T01:50:25.675Z,2.50
2019-04-11T01:52:52.884Z,2.03
2019-04-11T01:55:20.588Z,2.07
2019-04-11T01:57:46.975Z,2.30
2019-04-11T02:00:17.677Z,2.87
2019-04-11T02:02:52.875Z,2.20
2019-04-11T02:05:27.280Z,1.70
2019-04-11T02:07:53.589Z,2.23
2019-04-11T02:10:20.961Z,2.43
2019-04-11T02:12:47.686Z,2.03
2019-04-11T02:15:17.142Z,2.27
2019-04-11T02:17:46.726Z,2.03
2019-04-11T02:20:14.559Z,1.90
2019-04-11T02:22:42.846Z,2.30
2019-04-11T02:25:23.148Z,2.27
2019-04-11T02:27:52.553Z,2.00
2019-04-11T02:30:21.091Z,2.17
2019-04-11T02:32:51.244Z,2.57
2019-04-11T02:35:19.832Z,2.67
2019-04-11T02:37:49.514Z,1.87
2019-04-11T02:40:15.475Z,2.33
2019-04-11T02:42:43.213Z,2.30
2019-04-11T02:45:26.348Z,1.93
2019-04-11T02:47:41.557Z,2.67
2019-04-11T02:50:12.436Z,2.57
2019-04-11T02:52:42.106Z,2.43
2019-04-11T02:55:10.315Z,2.47
2019-04-11T02:57:38.558Z,1.73
2019-04-11T03:00:06.405Z,1.97
2019-04-11T03:02:37.027Z,2.53
2019-04-11T03:05:05.574Z,1.80
2019-04-11T03:07:33.877Z,2.50
2019-04-11T03:10:00.398Z,2.43
2019-04-11T03:12:27.530Z,2.57
2019-04-11T03:15:10.847Z,2.70
2019-04-11T03:17:31.580Z,2.50
2019-04-11T03:20:08.932Z,1.93
2019-04-11T03:22:22.785Z,2.73
2019-04-11T03:24:58.372Z,1.80
2019-04-11T03:27:28.097Z,2.47
2019-04-11T03:29:58.057Z,2.20
2019-04-11T03:33:00.584Z,2.53
2019-04-11T03:36:00.202Z,2.60
2019-04-11T03:37:58.616Z,2.13
2019-04-11T03:40:28.291Z,2.60
2019-04-11T03:42:46.314Z,3.40
2019-04-11T03:45:20.921Z,2.37
2019-04-11T03:47:41.052Z,2.70
2019-04-11T03:50:07.220Z,2.23
2019-04-11T03:52:26.136Z,2.40
2019-04-11T03:54:53.983Z,2.37
2019-04-11T03:57:21.536Z,2.90
2019-04-11T03:59:52.030Z,2.80
2019-04-11T04:02:20.270Z,2.83
2019-04-11T04:04:46.826Z,2.37
2019-04-11T04:07:16.454Z,2.80
2019-04-11T04:09:42.366Z,2.63
2019-04-11T04:12:13.641Z,2.73
2019-04-11T04:14:53.737Z,3.23
2019-04-11T04:17:41.323Z,2.67
2019-04-11T04:20:21.628Z,2.30
2019-04-11T04:22:58.610Z,2.87
2019-04-11T04:25:26.158Z,2.73
2019-04-11T04:27:54.257Z,3.07
2019-04-11T04:30:21.898Z,2.77
2019-04-11T04:32:49.644Z,2.93
2019-04-11T04:35:36.210Z,3.47
2019-04-11T04:38:03.233Z,3.20
2019-04-11T04:40:50.094Z,3.03
2019-04-11T04:43:01.258Z,3.63
2019-04-11T04:45:27.752Z,3.37
2019-04-11T04:48:10.168Z,2.60
2019-04-11T04:50:34.424Z,4.13
2019-04-11T04:53:02.757Z,2.60
2019-04-11T04:55:30.324Z,3.90
2019-04-11T04:58:01.804Z,3.70
2019-04-11T05:00:29.866Z,3.50
2019-04-11T05:03:09.763Z,3.83
2019-04-11T05:05:39.103Z,2.63
2019-04-11T05:08:20.904Z,2.93
2019-04-11T05:10:47.225Z,3.20
2019-04-11T05:13:15.118Z,3.73
2019-04-11T05:15:42.144Z,3.13
2019-04-11T05:18:11.460Z,3.67
2019-04-11T05:20:38.589Z,2.97
2019-04-11T05:23:04.928Z,3.40
2019-04-11T05:25:32.687Z,3.63
2019-04-11T05:28:19.639Z,3.60
2019-04-11T05:30:45.861Z,2.93
2019-04-11T05:33:12.061Z,3.20
2019-04-11T05:35:38.287Z,3.87
2019-04-11T05:38:05.713Z,3.30
2019-04-11T05:40:32.491Z,3.43
2019-04-11T05:42:59.623Z,4.03
2019-04-11T05:45:26.462Z,3.20
2019-04-11T05:48:13.582Z,3.60
2019-04-11T05:50:58.377Z,3.23
2019-04-11T05:53:24.984Z,3.20
2019-04-11T05:56:03.683Z,2.77
2019-04-11T05:58:42.167Z,3.00
2019-04-11T06:01:27.368Z,3.00
2019-04-11T06:03:59.083Z,3.57
2019-04-11T06:06:44.360Z,3.50
2019-04-11T06:09:21.080Z,2.47
2019-04-11T06:12:01.272Z,3.43
2019-04-11T06:14:44.550Z,3.93
2019-04-11T06:17:14.258Z,3.03
2019-04-11T06:19:43.773Z,2.93
2019-04-11T06:22:10.815Z,4.17
2019-04-11T06:24:54.386Z,3.33
2019-04-11T06:27:25.226Z,3.67
2019-04-11T06:30:09.970Z,3.33
2019-04-11T06:32:38.370Z,3.40
2019-04-11T06:35:15.921Z,3.53
2019-04-11T06:37:52.810Z,3.90
2019-04-11T06:40:29.615Z,2.80
2019-04-11T06:43:07.813Z,4.07
2019-04-11T06:45:39.740Z,3.23
2019-04-11T06:48:11.576Z,2.97
2019-04-11T06:51:01.739Z,3.37
2019-04-11T06:53:48.660Z,3.17
2019-04-11T06:56:16.931Z,3.23
2019-04-11T06:58:45.766Z,2.97
2019-04-11T07:01:14.098Z,3.93
2019-04-11T07:03:49.071Z,2.30
2019-04-11T07:06:21.643Z,2.87
2019-04-11T07:09:10.646Z,3.30
2019-04-11T07:11:38.800Z,3.63
2019-04-11T07:14:22.447Z,2.93
2019-04-11T07:17:11.057Z,2.60
2019-04-11T07:20:09.141Z,3.03
2019-04-11T07:22:48.834Z,3.37
2019-04-11T07:25:22.978Z,2.77
2019-04-11T07:28:08.444Z,3.43
2019-04-11T07:30:45.612Z,3.03
2019-04-11T07:33:29.027Z,3.50
2019-04-11T07:36:01.659Z,3.43
2019-04-11T07:38:52.134Z,4.07
2019-04-11T07:41:19.975Z,2.90
2019-04-11T07:44:17.609Z,3.13
2019-04-11T07:46:55.908Z,3.17
2019-04-11T07:49:28.530Z,3.23
2019-04-11T07:51:56.765Z,3.20
2019-04-11T07:54:25.955Z,2.47
2019-04-11T07:57:10.819Z,3.00
2019-04-11T07:59:55.789Z,3.37
2019-04-11T08:02:40.788Z,2.97
2019-04-11T08:05:15.494Z,3.03
2019-04-11T08:07:55.902Z,3.33
2019-04-11T08:10:33.075Z,3.00
2019-04-11T08:13:06.903Z,3.40
2019-04-11T08:15:40.337Z,3.20
2019-04-11T08:18:20.873Z,3.67
2019-04-11T08:20:53.219Z,3.40
2019-04-11T08:23:21.595Z,3.63
2019-04-11T08:25:53.579Z,2.90
2019-04-11T08:28:20.585Z,3.17
2019-04-11T08:30:51.883Z,3.23
2019-04-11T08:33:20.040Z,3.57
2019-04-11T08:35:51.343Z,3.10
2019-04-11T08:38:22.419Z,3.33
2019-04-11T08:40:51.386Z,3.40
2019-04-11T08:43:37.443Z,3.17
2019-04-11T08:46:23.982Z,2.70
2019-04-11T08:48:57.946Z,2.83
2019-04-11T08:51:27.370Z,2.73
2019-04-11T08:54:19.820Z,3.03
2019-04-11T08:56:49.456Z,3.90
2019-04-11T08:59:39.783Z,2.43
2019-04-11T09:02:24.845Z,3.23
2019-04-11T09:05:29.125Z,3.60
2019-04-11T09:08:16.377Z,2.63
2019-04-11T09:11:14.946Z,2.90
2019-04-11T09:13:59.915Z,3.20
2019-04-11T09:17:05.830Z,3.00
2019-04-11T09:19:43.112Z,2.80
2019-04-11T09:22:31.250Z,3.23
2019-04-11T09:25:08.448Z,3.60
2019-04-11T09:27:36.602Z,2.93
2019-04-11T09:30:17.404Z,3.20
2019-04-11T09:32:52.755Z,3.23
2019-04-11T09:35:22.064Z,3.30
2019-04-11T09:37:49.565Z,2.90
2019-04-11T09:40:17.833Z,3.50
2019-04-11T09:42:48.676Z,3.57
2019-04-11T09:45:35.446Z,3.33
2019-04-11T09:48:22.246Z,3.47
2019-04-11T09:51:26.477Z,2.80
2019-04-11T09:53:55.171Z,3.25
2019-04-11T09:56:31.939Z,3.00
2019-04-11T09:59:17.029Z,3.70
2019-04-11T10:01:54.092Z,3.17
2019-04-11T10:04:23.336Z,3.98
2019-04-11T10:07:11.036Z,3.95
2019-04-11T10:10:10.796Z,4.05
2019-04-11T10:12:58.630Z,4.10
2019-04-11T10:15:27.204Z,3.75
2019-04-11T10:18:27.742Z,3.90
2019-04-11T10:20:54.992Z,3.57
2019-04-11T10:23:23.313Z,3.90
2019-04-11T10:25:51.652Z,3.90
2019-04-11T10:28:41.825Z,3.07
2019-04-11T10:31:10.480Z,3.30
2019-04-11T10:33:39.365Z,3.30
2019-04-11T10:36:10.574Z,3.10
2019-04-11T10:38:40.445Z,3.13
2019-04-11T10:41:25.676Z,3.30
2019-04-11T10:43:52.113Z,3.77
2019-04-11T10:46:20.190Z,3.40
2019-04-11T10:48:57.080Z,3.40
2019-04-11T10:51:34.163Z,3.43
2019-04-11T10:54:02.852Z,3.07
2019-04-11T10:57:03.856Z,3.47
2019-04-11T10:59:38.556Z,3.40
2019-04-11T11:02:27.861Z,3.50
2019-04-11T11:04:57.253Z,3.50
2019-04-11T11:07:24.651Z,3.27
2019-04-11T11:10:09.259Z,3.87
2019-04-11T11:13:01.686Z,3.27
2019-04-11T11:15:29.613Z,3.60
2019-04-11T11:21:00.331Z,3.80
2019-04-11T11:23:44.860Z,3.80
2019-04-11T11:26:20.449Z,3.50
2019-04-11T11:29:07.321Z,4.10
2019-04-11T11:31:43.049Z,3.07
2019-04-11T11:34:23.661Z,3.50
2019-04-11T11:37:23.243Z,3.40
2019-04-11T11:39:55.911Z,3.80
2019-04-11T11:42:42.093Z,3.95
2019-04-11T11:45:37.499Z,4.05
2019-04-11T11:48:15.908Z,3.20
2019-04-11T11:50:39.369Z,3.47
2019-04-11T11:53:25.864Z,3.33
2019-04-11T11:55:53.565Z,4.00
2019-04-11T11:58:37.544Z,3.58
2019-04-11T12:01:24.120Z,3.17
2019-04-11T12:04:10.796Z,3.45
2019-04-11T12:06:38.834Z,3.77
2019-04-11T12:09:07.176Z,3.42
2019-04-11T12:11:35.416Z,3.70
2019-04-11T12:14:07.563Z,5.85
2019-04-11T12:16:41.762Z,12.85
2019-04-11T12:19:16.057Z,14.07
2019-04-11T12:21:40.989Z,3.90
2019-04-11T12:24:30.173Z,8.68
2019-04-11T12:27:08.671Z,7.92
2019-04-11T12:29:50.126Z,12.73
2019-04-11T12:32:20.083Z,3.70
2019-04-11T12:35:06.179Z,9.55
2019-04-11T12:37:37.846Z,14.13
2019-04-11T12:40:42.136Z,13.95
2019-04-11T12:43:12.388Z,12.90
2019-04-11T12:45:57.286Z,13.80
2019-04-11T12:48:25.422Z,4.10
2019-04-11T12:50:56.653Z,3.60
2019-04-11T12:53:23.050Z,3.15
2019-04-11T12:55:54.354Z,3.40
2019-04-11T12:58:22.430Z,3.42
2019-04-11T13:01:13.436Z,3.52
2019-04-11T13:03:59.546Z,3.60
2019-04-11T13:06:49.117Z,3.42
2019-04-11T13:09:46.030Z,6.67
2019-04-11T13:12:23.467Z,5.03
2019-04-11T13:14:57.406Z,6.62
2019-04-11T13:17:43.132Z,7.08
2019-04-11T13:20:27.937Z,6.45
2019-04-11T13:23:05.040Z,5.05
2019-04-11T13:25:39.041Z,5.47
2019-04-11T13:28:08.430Z,5.17
2019-04-11T13:30:39.483Z,3.67
2019-04-11T13:33:21.983Z,4.47
2019-04-11T13:36:23.081Z,5.83
2019-04-11T13:38:52.011Z,6.53
2019-04-11T13:41:20.595Z,5.05
2019-04-11T13:43:49.118Z,6.87
2019-04-11T13:46:35.714Z,5.45
2019-04-11T13:49:40.242Z,5.22
2019-04-11T13:52:11.599Z,5.20
2019-04-11T13:54:39.693Z,3.30
2019-04-11T13:57:10.994Z,4.65
2019-04-11T13:59:51.479Z,4.72
2019-04-11T14:02:54.544Z,6.95
2019-04-11T14:05:23.413Z,3.10
2019-04-11T14:07:51.489Z,3.17
2019-04-11T14:10:18.926Z,4.00
2019-04-11T14:12:47.761Z,3.30
2019-04-11T14:15:21.424Z,3.33
2019-04-11T14:18:11.686Z,3.77
2019-04-11T14:20:41.992Z,3.30
2019-04-11T14:23:14.889Z,2.80
2019-04-11T14:28:51.538Z,3.27
2019-04-11T14:31:31.401Z,4.80
2019-04-11T14:34:13.902Z,3.95
2019-04-11T14:37:16.948Z,4.17
2019-04-11T14:39:47.809Z,3.65
2019-04-11T14:42:32.989Z,3.65
2019-04-11T14:44:59.380Z,3.05
2019-04-11T14:50:53.417Z,3.50
2019-04-11T14:53:33.602Z,3.42
2019-04-11T14:56:01.685Z,3.62
2019-04-11T14:58:35.715Z,4.30
2019-04-11T15:01:19.076Z,3.58
2019-04-11T15:03:50.149Z,3.17
2019-04-11T15:06:18.459Z,3.33
2019-04-11T15:08:52.164Z,3.37
2019-04-11T15:11:25.836Z,3.52
2019-04-11T15:13:53.941Z,3.47
2019-04-11T15:16:27.607Z,3.05
2019-04-11T15:18:58.442Z,3.17
2019-04-11T15:21:43.229Z,3.15
2019-04-11T15:24:28.140Z,2.98
2019-04-11T15:27:06.583Z,3.20
2019-04-11T15:29:33.333Z,3.00
2019-04-11T15:32:04.070Z,3.02
2019-04-11T15:34:38.596Z,3.05
2019-04-11T15:37:12.738Z,3.15
2019-04-11T15:39:59.114Z,3.17
2019-04-11T15:42:45.206Z,2.80
2019-04-11T15:45:31.466Z,2.95
2019-04-11T15:48:11.707Z,3.30
2019-04-11T15:53:46.556Z,2.95
2019-04-11T15:56:40.849Z,3.12
2019-04-11T15:59:33.375Z,3.17
2019-04-11T16:02:18.304Z,3.33
2019-04-11T16:04:55.798Z,3.08
2019-04-11T16:07:23.924Z,3.25
2019-04-11T16:09:52.165Z,3.20
2019-04-11T16:12:36.988Z,3.05
2019-04-11T16:15:16.214Z,2.85
2019-04-11T16:18:03.338Z,4.03
2019-04-11T16:20:50.875Z,2.58
2019-04-11T16:23:48.652Z,2.92
2019-04-11T16:26:19.524Z,3.47
2019-04-11T16:29:08.669Z,2.95
2019-04-11T16:31:47.494Z,2.75
2019-04-11T16:34:18.438Z,3.07
2019-04-11T16:36:46.584Z,4.22
2019-04-11T16:39:14.788Z,3.27
2019-04-11T16:41:54.506Z,2.95
2019-04-11T16:44:50.367Z,2.75
2019-04-11T16:47:27.548Z,3.03
2019-04-11T16:49:57.525Z,2.43
2019-04-11T16:52:42.793Z,3.10
2019-04-11T16:55:11.582Z,2.92
2019-04-11T16:57:38.496Z,2.53
2019-04-11T17:00:20.365Z,2.83
2019-04-11T17:02:45.313Z,3.43
2019-04-11T17:05:11.532Z,3.20
2019-04-11T17:07:48.804Z,2.73
2019-04-11T17:10:17.199Z,3.30
2019-04-11T17:13:02.042Z,2.97
2019-04-11T17:15:30.457Z,3.67
2019-04-11T17:17:56.513Z,2.93
2019-04-11T17:20:22.901Z,3.07
2019-04-11T17:23:07.803Z,3.30
2019-04-11T17:25:34.421Z,3.00
2019-04-11T17:28:22.857Z,2.60
2019-04-11T17:30:49.912Z,2.70
2019-04-11T17:33:16.308Z,3.10
2019-04-11T17:35:42.519Z,2.67
2019-04-11T17:38:08.694Z,2.90
2019-04-11T17:40:37.398Z,2.37
2019-04-11T17:43:06.255Z,2.50
2019-04-11T17:45:38.804Z,2.30
2019-04-11T17:48:05.070Z,2.33
2019-04-11T17:50:32.757Z,2.90
2019-04-11T17:52:59.480Z,2.53
2019-04-11T17:55:25.840Z,2.43
2019-04-11T17:57:52.108Z,2.20
2019-04-11T18:00:29.565Z,2.77
2019-04-11T18:02:57.521Z,2.40
2019-04-11T18:05:26.300Z,2.30
2019-04-11T18:07:52.536Z,2.80
2019-04-11T18:10:18.737Z,2.70
2019-04-11T18:12:44.935Z,2.70
2019-04-11T18:15:11.384Z,2.30
2019-04-11T18:17:56.309Z,2.33
2019-04-11T18:20:23.661Z,2.53
2019-04-11T18:22:50.484Z,2.20
2019-04-11T18:25:26.001Z,2.10
2019-04-11T18:27:52.503Z,2.07
2019-04-11T18:30:20.917Z,2.50
2019-04-11T18:32:49.835Z,2.50
2019-04-11T18:35:18.827Z,2.47
2019-04-11T18:37:45.020Z,1.93
2019-04-11T18:40:30.294Z,3.03
2019-04-11T18:42:56.614Z,2.10
2019-04-11T18:45:25.803Z,2.07
2019-04-11T18:47:57.825Z,2.50
2019-04-11T18:50:28.806Z,1.97
2019-04-11T18:52:59.192Z,1.90
2019-04-11T18:55:23.320Z,2.20
2019-04-11T18:57:52.357Z,2.20
2019-04-11T19:00:20.412Z,2.63
2019-04-11T19:02:49.383Z,2.50
2019-04-11T19:05:23.319Z,2.00
2019-04-11T19:07:46.787Z,1.97
2019-04-11T19:10:15.075Z,2.20
2019-04-11T19:12:43.934Z,2.27
2019-04-11T19:15:28.672Z,2.33
2019-04-11T19:18:05.731Z,2.20
2019-04-11T19:20:26.013Z,2.13
2019-04-11T19:22:52.213Z,2.37
2019-04-11T19:25:18.422Z,2.40
2019-04-11T19:27:50.043Z,1.97
2019-04-11T19:30:15.326Z,2.43
2019-04-11T19:32:41.607Z,1.90
2019-04-11T19:35:07.803Z,2.23
2019-04-11T19:37:34.098Z,2.70
2019-04-11T19:40:04.376Z,2.53
2019-04-11T19:42:49.823Z,2.47
2019-04-11T19:45:16.893Z,2.13
2019-04-11T19:47:44.270Z,3.53
2019-04-11T19:50:16.471Z,2.27
2019-04-11T19:53:16.823Z,2.20
2019-04-11T19:55:52.394Z,2.50
2019-04-11T19:58:20.654Z,2.30
2019-04-11T20:00:47.517Z,2.73
2019-04-11T20:03:13.863Z,2.43
2019-04-11T20:05:40.096Z,2.87
2019-04-11T20:08:06.297Z,2.33
2019-04-11T20:10:35.344Z,2.50
2019-04-11T20:13:02.719Z,2.50
2019-04-11T20:15:36.997Z,2.20
2019-04-11T20:17:59.742Z,2.33
2019-04-11T20:20:26.322Z,2.23
2019-04-11T20:22:59.134Z,1.90
2019-04-11T20:25:23.462Z,2.30
2019-04-11T20:27:50.665Z,2.30
2019-04-11T20:30:17.574Z,2.17
2019-04-11T20:32:43.903Z,2.20
2019-04-11T20:35:10.309Z,2.00
2019-04-11T20:37:42.275Z,2.03
2019-04-11T20:40:10.661Z,2.00
2019-04-11T20:42:36.853Z,2.07
2019-04-11T20:45:06.012Z,2.90
2019-04-11T20:47:32.330Z,2.13
2019-04-11T20:50:07.411Z,2.87
2019-04-11T20:52:29.540Z,2.20
2019-04-11T20:54:55.811Z,2.43
2019-04-11T20:57:25.874Z,2.57
2019-04-11T20:59:50.277Z,2.30
2019-04-11T21:02:16.574Z,2.37
2019-04-11T21:04:42.818Z,2.40
2019-04-11T21:07:09.038Z,2.80
2019-04-11T21:09:35.262Z,1.90
